Time;durP1;ratioP1;P1;durP2;ratioP2;P2;SDS_P1;SDS_P2;PMS_P1;PMS_P2;Temp;Humidity;BMP_temperature;BMP_pressure;BME280_temperature;BME280_humidity;BME280_pressure;Samples;Min_cycle;Max_cycle;Signal;HPM_P1;HPM_P2
2024/01/24 00:01:42;;;;;;;;;;;;;;;1.18;85.58;95801.78;5070867;28;19932;-77
2024/01/24 00:04:08;;;;;;;;;;;;;;;0.96;87.84;95762.25;5066540;28;20035;-78
2024/01/24 00:06:33;;;;;;;;;;;;;;;1.32;86.44;95762.22;5065301;28;20051;-77
2024/01/24 00:08:58;;;;;;;;;;;;;;;1.14;87.24;95809.03;5061241;28;19947;-77
2024/01/24 00:11:23;;;;;;;;;;;;;;;1.05;88.47;95762.50;5065991;28;19925;-78
2024/01/24 00:13:49;;;;;;;;;;;;;;;1.14;87.25;95753.13;5071131;28;20115;-78
2024/01/24 00:16:15;;;;;;;;;;;;;;;1.38;85.52;95755.69;5067484;28;20201;-78
2024/01/24 00:18:40;;;;;;;;;;;;;;;1.57;85.23;95755.13;5076399;28;19924;-77
2024/01/24 00:21:05;;;;;;;;;;;;;;;1.21;87.07;95756.97;5053226;28;19948;-77
2024/01/24 00:23:31;;;;;;;;;;;;;;;1.04;87.97;95756.44;5052289;28;20157;-77
2024/01/24 00:25:56;;;;;;;;;;;;;;;1.16;87.57;95744.19;5063415;28;20000;-77
2024/01/24 00:28:21;;;;;;;;;;;;;;;1.33;87.52;95750.78;5041839;28;20356;-77
2024/01/24 00:30:47;;;;;;;;;;;;;;;1.50;86.36;95746.06;5047086;28;20061;-77
2024/01/24 00:33:12;;;;;;;;;;;;;;;1.62;86.03;95729.38;5064727;28;20273;-78
2024/01/24 00:35:37;;;;;;;;;;;;;;;1.72;84.54;95734.75;5064979;28;20183;-77
2024/01/24 00:38:02;;;;;;;;;;;;;;;1.75;84.47;95712.66;5064200;28;19936;-77
2024/01/24 00:40:28;;;;;;;;;;;;;;;1.94;82.56;95733.06;5048493;28;19935;-77
2024/01/24 00:42:53;;;;;;;;;;;;;;;2.23;81.05;95722.03;5077176;28;19930;-78
2024/01/24 00:45:18;;;;;;;;;;;;;;;2.21;80.97;95702.91;5070658;28;19977;-77
2024/01/24 00:47:43;;;;;;;;;;;;;;;1.94;82.67;95722.56;5068787;28;20417;-77
2024/01/24 00:50:09;;;;;;;;;;;;;;;2.24;82.18;95712.34;5070063;28;19944;-78
2024/01/24 00:52:34;;;;;;;;;;;;;;;2.07;82.69;95730.28;5081019;28;20292;-77
2024/01/24 00:55:00;;;;;;;;;;;;;;;2.32;81.72;95711.75;5064289;28;19924;-78
2024/01/24 00:57:25;;;;;;;;;;;;;;;2.33;81.43;95716.88;5067315;28;19928;-78
2024/01/24 00:59:50;;;;;;;;;;;;;;;2.48;80.27;95720.06;5065622;28;19948;-78
2024/01/24 01:02:16;;;;;;;;;;;;;;;2.43;80.60;95718.75;5052562;28;20330;-78
2024/01/24 01:04:42;;;;;;;;;;;;;;;2.50;80.39;95728.66;5067213;28;20154;-77
2024/01/24 01:07:07;;;;;;;;;;;;;;;2.51;80.39;95719.81;5052032;28;20382;-78
2024/01/24 01:09:32;;;;;;;;;;;;;;;2.29;81.71;95731.22;5062574;28;19920;-78
2024/01/24 01:11:57;;;;;;;;;;;;;;;1.99;82.30;95723.03;5066507;28;19924;-77
2024/01/24 01:14:23;;;;;;;;;;;;;;;2.50;80.68;95726.03;5064955;28;19932;-78
2024/01/24 01:16:48;;;;;;;;;;;;;;;2.12;83.93;95720.25;5047090;28;20021;-77
2024/01/24 01:19:13;;;;;;;;;;;;;;;1.98;83.72;95713.47;5067517;28;19920;-77
2024/01/24 01:21:40;;;;;;;;;;;;;;;2.22;83.17;95706.41;5064194;28;19924;-78
2024/01/24 01:24:05;;;;;;;;;;;;;;;2.74;80.89;95709.22;5051807;28;19980;-78
2024/01/24 01:26:31;;;;;;;;;;;;;;;2.93;79.33;95701.59;5068521;28;20401;-78
2024/01/24 01:28:56;;;;;;;;;;;;;;;1.92;83.03;95715.75;5067991;28;19931;-78
2024/01/24 01:31:22;;;;;;;;;;;;;;;2.61;82.12;95713.78;5073909;28;19924;-78
2024/01/24 01:33:47;;;;;;;;;;;;;;;2.75;79.92;95687.19;5057780;28;20460;-78
2024/01/24 01:36:12;;;;;;;;;;;;;;;3.01;78.36;95680.72;5072269;28;19920;-78
2024/01/24 01:38:37;;;;;;;;;;;;;;;2.52;81.62;95694.38;5056937;28;19928;-78
2024/01/24 01:41:03;;;;;;;;;;;;;;;2.34;83.33;95681.75;5062841;28;19924;-78
2024/01/24 01:43:28;;;;;;;;;;;;;;;3.20;78.77;95672.09;5069571;28;20127;-78
2024/01/24 01:45:54;;;;;;;;;;;;;;;3.04;78.41;95657.63;5068590;28;20201;-77
2024/01/24 01:48:19;;;;;;;;;;;;;;;2.58;81.53;95656.22;5044012;28;19967;-78
2024/01/24 01:50:44;;;;;;;;;;;;;;;2.87;79.89;95674.00;5068438;28;20590;-78
2024/01/24 01:53:09;;;;;;;;;;;;;;;2.51;82.01;95674.28;5053978;28;20019;-78
2024/01/24 01:55:35;;;;;;;;;;;;;;;2.34;83.30;95678.28;5054653;28;19927;-77
2024/01/24 01:58:00;;;;;;;;;;;;;;;2.20;84.82;95658.38;5050994;28;20373;-78
2024/01/24 02:00:25;;;;;;;;;;;;;;;2.59;81.66;95655.25;5052529;28;19923;-78
2024/01/24 02:02:51;;;;;;;;;;;;;;;2.38;82.82;95659.53;5045130;28;19920;-79
2024/01/24 02:05:16;;;;;;;;;;;;;;;2.32;84.55;95653.94;5050796;28;19927;-78
2024/01/24 02:07:45;;;;;;;;;;;;;;;1.88;87.37;95646.91;5051593;28;19916;-78
2024/01/24 02:10:13;;;;;;;;;;;;;;;1.92;86.93;95644.84;5071130;28;19920;-78
2024/01/24 02:12:38;;;;;;;;;;;;;;;1.73;87.65;95683.06;5041611;28;19924;-77
2024/01/24 02:15:04;;;;;;;;;;;;;;;2.21;85.57;95641.69;5068267;28;19935;-79
2024/01/24 02:17:29;;;;;;;;;;;;;;;2.00;86.85;95669.56;5054177;28;20301;-78
2024/01/24 02:19:54;;;;;;;;;;;;;;;2.16;86.34;95656.97;5072879;28;20018;-77
2024/01/24 02:22:19;;;;;;;;;;;;;;;2.24;86.27;95636.16;5068938;28;20385;-78
2024/01/24 02:24:45;;;;;;;;;;;;;;;2.04;87.50;95657.00;5047567;28;19984;-77
2024/01/24 02:27:10;;;;;;;;;;;;;;;2.53;84.59;95632.94;5070451;28;19924;-79
2024/01/24 02:29:35;;;;;;;;;;;;;;;2.56;84.63;95623.97;5036763;28;20289;-78
2024/01/24 02:32:00;;;;;;;;;;;;;;;2.79;82.97;95622.03;5053599;28;19923;-78
2024/01/24 02:34:26;;;;;;;;;;;;;;;2.59;84.44;95616.66;5070316;28;19931;-78
2024/01/24 02:36:51;;;;;;;;;;;;;;;2.24;87.45;95625.66;5049295;28;20689;-78
2024/01/24 02:39:17;;;;;;;;;;;;;;;2.51;84.20;95613.81;5070961;28;19971;-78
2024/01/24 02:41:42;;;;;;;;;;;;;;;2.69;84.13;95610.63;5074170;28;20200;-78
2024/01/24 02:44:08;;;;;;;;;;;;;;;2.64;84.56;95585.56;5062268;28;19931;-78
2024/01/24 02:46:34;;;;;;;;;;;;;;;2.33;85.87;95601.25;5033430;28;20643;-78
2024/01/24 02:48:59;;;;;;;;;;;;;;;2.58;85.88;95606.28;5039473;28;19925;-78
2024/01/24 02:51:25;;;;;;;;;;;;;;;2.09;87.96;95601.47;5055398;28;19930;-78
2024/01/24 02:53:50;;;;;;;;;;;;;;;2.38;87.85;95595.59;5056665;28;20170;-78
2024/01/24 02:56:15;;;;;;;;;;;;;;;2.18;89.79;95586.75;5070925;28;20221;-78
2024/01/24 02:58:40;;;;;;;;;;;;;;;2.22;88.34;95580.28;5051807;28;19916;-78
2024/01/24 03:01:06;;;;;;;;;;;;;;;2.58;86.26;95586.06;5065414;28;20031;-77
2024/01/24 03:03:31;;;;;;;;;;;;;;;2.57;86.78;95589.66;5068094;28;19928;-78
2024/01/24 03:05:56;;;;;;;;;;;;;;;2.49;86.86;95587.66;5061545;28;19924;-78
2024/01/24 03:08:22;;;;;;;;;;;;;;;2.54;87.67;95587.28;5069632;28;20562;-78
2024/01/24 03:10:47;;;;;;;;;;;;;;;2.24;90.14;95594.97;5063659;28;19922;-78
2024/01/24 03:13:13;;;;;;;;;;;;;;;2.10;91.01;95580.34;5065344;28;19928;-78
2024/01/24 03:15:38;;;;;;;;;;;;;;;2.15;91.63;95587.84;5062161;28;20009;-78
2024/01/24 03:18:03;;;;;;;;;;;;;;;1.98;91.69;95592.66;5062402;28;19927;-78
2024/01/24 03:20:28;;;;;;;;;;;;;;;2.03;91.83;95594.94;5064826;28;20340;-78
2024/01/24 03:22:54;;;;;;;;;;;;;;;2.05;92.40;95602.69;5046664;28;19964;-78
2024/01/24 03:25:19;;;;;;;;;;;;;;;2.11;91.55;95587.25;5062098;28;19927;-78
2024/01/24 03:27:45;;;;;;;;;;;;;;;2.14;93.71;95575.66;5063211;28;20377;-79
2024/01/24 03:30:10;;;;;;;;;;;;;;;2.57;90.51;95581.78;5057701;28;19920;-78
2024/01/24 03:32:36;;;;;;;;;;;;;;;2.46;89.88;95564.28;5059990;28;20479;-78
2024/01/24 03:35:01;;;;;;;;;;;;;;;2.36;91.64;95566.84;5057417;28;19924;-78
2024/01/24 03:37:26;;;;;;;;;;;;;;;2.28;92.01;95556.13;5042811;28;20051;-77
2024/01/24 03:39:52;;;;;;;;;;;;;;;2.45;91.08;95567.03;5040304;28;19924;-78
2024/01/24 03:42:17;;;;;;;;;;;;;;;2.21;92.39;95597.84;5068544;28;20310;-77
2024/01/24 03:44:42;;;;;;;;;;;;;;;2.13;94.60;95569.59;5054919;28;19991;-78
2024/01/24 03:47:08;;;;;;;;;;;;;;;2.11;94.27;95581.19;5063350;28;19959;-78
2024/01/24 03:49:33;;;;;;;;;;;;;;;2.30;93.84;95583.13;5057052;28;20403;-78
2024/01/24 03:51:58;;;;;;;;;;;;;;;2.51;91.61;95593.66;5060345;28;19956;-77
2024/01/24 03:54:23;;;;;;;;;;;;;;;2.46;92.04;95579.22;5056499;28;19959;-77
2024/01/24 03:56:49;;;;;;;;;;;;;;;2.51;90.85;95567.38;5059565;28;20442;-77
2024/01/24 03:59:14;;;;;;;;;;;;;;;2.57;91.67;95566.00;5064107;28;20212;-78
2024/01/24 04:01:39;;;;;;;;;;;;;;;2.73;90.61;95543.69;5065396;28;20069;-77
2024/01/24 04:04:05;;;;;;;;;;;;;;;2.55;90.80;95567.91;5066695;28;19947;-77
2024/01/24 04:06:30;;;;;;;;;;;;;;;2.74;91.38;95548.81;5038912;28;19924;-77
2024/01/24 04:08:55;;;;;;;;;;;;;;;2.98;88.98;95555.56;5063132;28;20042;-78
2024/01/24 04:11:20;;;;;;;;;;;;;;;2.99;89.38;95548.53;5040278;28;19927;-78
2024/01/24 04:13:50;;;;;;;;;;;;;;;2.72;91.26;95560.44;5067389;28;19928;-78
2024/01/24 04:16:15;;;;;;;;;;;;;;;2.69;91.74;95558.06;5040666;28;20196;-77
2024/01/24 04:18:40;;;;;;;;;;;;;;;2.71;90.73;95541.19;5068664;28;19963;-77
2024/01/24 04:21:05;;;;;;;;;;;;;;;2.64;93.08;95554.03;5050261;28;19924;-76
2024/01/24 04:23:31;;;;;;;;;;;;;;;2.45;93.85;95544.22;5044665;28;19924;-77
2024/01/24 04:25:56;;;;;;;;;;;;;;;2.82;92.61;95577.06;5055793;28;20009;-77
2024/01/24 04:28:21;;;;;;;;;;;;;;;2.79;92.33;95548.41;5040703;28;19924;-77
2024/01/24 04:30:46;;;;;;;;;;;;;;;2.84;92.10;95555.91;5055691;28;19927;-76
2024/01/24 04:33:14;;;;;;;;;;;;;;;2.46;97.46;95555.56;5064471;28;20064;-77
2024/01/24 04:35:39;;;;;;;;;;;;;;;2.81;96.72;95535.13;5057069;28;19924;-77
2024/01/24 04:38:04;;;;;;;;;;;;;;;2.74;97.54;95540.94;5057930;28;20019;-76
2024/01/24 04:40:29;;;;;;;;;;;;;;;2.62;96.96;95552.50;5062346;28;19920;-77
2024/01/24 04:42:55;;;;;;;;;;;;;;;2.63;96.65;95549.72;5057750;28;19940;-77
2024/01/24 04:45:20;;;;;;;;;;;;;;;2.74;95.10;95537.47;5037346;28;19967;-77
2024/01/24 04:47:45;;;;;;;;;;;;;;;2.88;93.96;95547.63;5057206;28;20408;-77
2024/01/24 04:50:11;;;;;;;;;;;;;;;2.53;96.12;95533.88;5060582;28;20262;-77
2024/01/24 04:52:36;;;;;;;;;;;;;;;2.51;96.57;95561.25;5044476;28;19928;-77
2024/01/24 04:55:01;;;;;;;;;;;;;;;2.48;96.70;95551.84;5038491;28;19917;-77
2024/01/24 04:57:27;;;;;;;;;;;;;;;2.53;97.69;95544.41;5046125;28;20927;-77
2024/01/24 04:59:52;;;;;;;;;;;;;;;2.58;96.40;95546.66;5062015;28;19931;-77
2024/01/24 05:02:17;;;;;;;;;;;;;;;2.57;97.96;95537.09;5060689;28;19931;-77
2024/01/24 05:04:43;;;;;;;;;;;;;;;2.77;96.79;95513.53;5062829;28;19924;-77
2024/01/24 05:07:08;;;;;;;;;;;;;;;2.78;94.99;95520.44;5062930;28;20386;-77
2024/01/24 05:09:34;;;;;;;;;;;;;;;2.92;94.83;95516.63;5061764;28;19931;-77
2024/01/24 05:11:59;;;;;;;;;;;;;;;3.10;94.47;95495.78;5068906;28;19994;-77
2024/01/24 05:14:24;;;;;;;;;;;;;;;2.75;94.92;95523.34;5047462;28;20018;-77
2024/01/24 05:16:49;;;;;;;;;;;;;;;2.77;97.46;95513.53;5038690;28;19932;-77
2024/01/24 05:19:15;;;;;;;;;;;;;;;2.87;96.47;95508.31;5037237;28;20382;-78
2024/01/24 05:21:41;;;;;;;;;;;;;;;2.77;96.92;95521.44;5038606;28;20031;-77
2024/01/24 05:24:07;;;;;;;;;;;;;;;2.65;97.69;95534.66;5038951;28;20266;-77
2024/01/24 05:26:32;;;;;;;;;;;;;;;2.67;97.84;95518.75;5038520;28;19912;-78
2024/01/24 05:28:58;;;;;;;;;;;;;;;2.63;97.90;95543.63;5059610;28;19932;-78
2024/01/24 05:31:23;;;;;;;;;;;;;;;2.82;96.11;95506.06;5065401;28;19924;-77
2024/01/24 05:33:48;;;;;;;;;;;;;;;2.77;96.53;95521.44;5074247;28;19928;-78
2024/01/24 05:36:14;;;;;;;;;;;;;;;2.68;99.41;95554.59;5069669;28;20433;-78
2024/01/24 05:38:39;;;;;;;;;;;;;;;2.78;99.05;95530.97;5073783;28;20154;-76
2024/01/24 05:41:04;;;;;;;;;;;;;;;3.17;96.47;95536.38;5064294;28;20051;-78
2024/01/24 05:43:30;;;;;;;;;;;;;;;3.22;95.76;95514.09;5069933;28;19917;-77
2024/01/24 05:45:55;;;;;;;;;;;;;;;2.87;97.09;95514.41;5075915;28;19920;-77
2024/01/24 05:48:20;;;;;;;;;;;;;;;2.78;98.22;95552.00;5068785;28;20014;-78
2024/01/24 05:50:45;;;;;;;;;;;;;;;2.26;100.00;95555.44;5068005;28;19920;-79
2024/01/24 05:53:11;;;;;;;;;;;;;;;2.19;100.00;95605.03;5046237;28;20244;-78
2024/01/24 05:55:36;;;;;;;;;;;;;;;2.17;100.00;95569.34;5048982;28;19960;-78
2024/01/24 05:58:02;;;;;;;;;;;;;;;2.18;100.00;95620.91;5051502;28;19969;-78
2024/01/24 06:00:27;;;;;;;;;;;;;;;2.41;100.00;95570.91;5052508;28;19924;-78
2024/01/24 06:02:52;;;;;;;;;;;;;;;2.57;98.98;95533.63;5073555;28;20129;-79
2024/01/24 06:05:18;;;;;;;;;;;;;;;2.39;100.00;95558.69;5072206;28;19955;-78
2024/01/24 06:07:43;;;;;;;;;;;;;;;2.37;100.00;95565.03;5073147;28;19924;-78
2024/01/24 06:10:09;;;;;;;;;;;;;;;2.77;98.32;95550.34;5057666;28;19968;-78
2024/01/24 06:12:34;;;;;;;;;;;;;;;2.85;98.14;95534.75;5061315;28;20290;-79
2024/01/24 06:14:59;;;;;;;;;;;;;;;3.02;96.62;95537.72;5065311;28;19924;-77
2024/01/24 06:17:24;;;;;;;;;;;;;;;3.03;97.72;95542.03;5065968;28;19924;-78
2024/01/24 06:19:51;;;;;;;;;;;;;;;3.24;95.56;95541.97;5052376;28;19920;-78
2024/01/24 06:22:16;;;;;;;;;;;;;;;3.09;96.02;95544.13;5059717;28;19969;-77
2024/01/24 06:24:41;;;;;;;;;;;;;;;3.32;95.42;95535.19;5068280;28;20286;-77
2024/01/24 06:27:08;;;;;;;;;;;;;;;3.00;96.60;95558.06;5060052;28;20564;-78
2024/01/24 06:29:34;;;;;;;;;;;;;;;3.06;97.22;95588.28;5072358;28;20078;-78
2024/01/24 06:31:59;;;;;;;;;;;;;;;2.81;100.00;95624.53;5042268;28;20019;-78
2024/01/24 06:34:26;;;;;;;;;;;;;;;2.85;100.00;95629.41;5067678;28;20364;-78
2024/01/24 06:36:51;;;;;;;;;;;;;;;2.49;100.00;95618.38;5068594;28;19923;-73
2024/01/24 06:39:16;;;;;;;;;;;;;;;2.30;100.00;95640.06;5068780;28;19924;-73
2024/01/24 06:41:42;;;;;;;;;;;;;;;2.17;100.00;95633.19;5064855;28;19928;-72
2024/01/24 06:44:08;;;;;;;;;;;;;;;2.13;100.00;95637.88;5060234;28;19978;-72
2024/01/24 06:46:40;;;;;;;;;;;;;;;2.11;100.00;95636.34;5073278;28;19978;-73
2024/01/24 06:49:05;;;;;;;;;;;;;;;2.08;100.00;95645.28;5051202;28;19925;-73
2024/01/24 06:51:31;;;;;;;;;;;;;;;1.93;100.00;95655.25;5067380;28;19940;-72
2024/01/24 06:53:56;;;;;;;;;;;;;;;1.65;99.30;95641.69;5051313;28;19972;-74
2024/01/24 06:56:21;;;;;;;;;;;;;;;1.33;92.18;95632.72;5066113;28;19928;-73
2024/01/24 06:58:47;;;;;;;;;;;;;;;1.36;88.82;95627.25;5065057;28;20365;-73
2024/01/24 07:01:12;;;;;;;;;;;;;;;1.43;87.05;95640.72;5074354;28;19924;-73
2024/01/24 07:03:37;;;;;;;;;;;;;;;1.48;86.08;95648.22;5075708;28;20297;-74
2024/01/24 07:06:05;;;;;;;;;;;;;;;1.62;84.75;95660.28;5072429;28;19964;-73
2024/01/24 07:08:30;;;;;;;;;;;;;;;1.82;85.36;95665.75;5073300;28;19950;-73
2024/01/24 07:10:55;;;;;;;;;;;;;;;1.79;84.51;95674.72;5075031;28;20377;-73
2024/01/24 07:13:21;;;;;;;;;;;;;;;2.09;83.94;95652.22;5045443;28;19928;-73
2024/01/24 07:15:46;;;;;;;;;;;;;;;1.84;82.78;95677.81;5067723;28;19928;-73
2024/01/24 07:18:11;;;;;;;;;;;;;;;1.90;84.21;95689.59;5059158;28;20336;-73
2024/01/24 07:20:38;;;;;;;;;;;;;;;1.88;82.64;95694.97;5075110;28;20003;-75
2024/01/24 07:23:03;;;;;;;;;;;;;;;1.95;82.05;95707.63;5064157;28;20397;-74
2024/01/24 07:25:28;;;;;;;;;;;;;;;1.79;81.31;95710.63;5077666;28;19955;-74
2024/01/24 07:27:53;;;;;;;;;;;;;;;1.71;80.70;95701.56;5084538;28;19981;-73
2024/01/24 07:30:22;;;;;;;;;;;;;;;1.56;79.54;95748.22;5074989;28;20423;-73
2024/01/24 07:32:47;;;;;;;;;;;;;;;1.36;79.06;95726.09;5058505;28;19986;-74
2024/01/24 07:35:12;;;;;;;;;;;;;;;1.44;78.67;95739.47;5061090;28;19932;-75
2024/01/24 07:37:38;;;;;;;;;;;;;;;1.63;78.16;95732.81;5059658;28;19928;-75
2024/01/24 07:40:04;;;;;;;;;;;;;;;1.62;78.08;95754.78;5064190;28;19963;-75
2024/01/24 07:42:30;;;;;;;;;;;;;;;1.60;78.72;95740.97;5056321;28;20197;-74
2024/01/24 07:44:55;;;;;;;;;;;;;;;1.56;78.39;95736.88;5045789;28;20399;-74
2024/01/24 07:47:22;;;;;;;;;;;;;;;1.64;79.37;95754.66;5041277;28;21006;-75
2024/01/24 07:49:47;;;;;;;;;;;;;;;1.58;78.77;95745.47;5075663;28;19924;-74
2024/01/24 07:52:12;;;;;;;;;;;;;;;1.33;78.43;95724.53;5068827;28;19935;-74
2024/01/24 07:54:38;;;;;;;;;;;;;;;1.52;78.47;95736.25;5061310;28;19951;-75
2024/01/24 07:57:03;;;;;;;;;;;;;;;1.47;76.28;95764.66;5072332;28;19935;-75
2024/01/24 07:59:32;;;;;;;;;;;;;;;1.59;75.82;95723.53;5062263;28;19955;-74
2024/01/24 08:01:57;;;;;;;;;;;;;;;1.53;74.43;95729.22;5043126;28;20013;-74
2024/01/24 08:04:22;;;;;;;;;;;;;;;1.41;73.53;95737.09;5046935;28;20445;-74
2024/01/24 08:06:47;;;;;;;;;;;;;;;1.45;72.50;95763.91;5042382;28;19931;-74
2024/01/24 08:09:13;;;;;;;;;;;;;;;1.42;71.90;95737.91;5059203;28;20054;-73
2024/01/24 08:11:38;;;;;;;;;;;;;;;1.21;72.09;95747.31;5044676;28;20166;-74
2024/01/24 08:14:03;;;;;;;;;;;;;;;1.07;71.14;95740.50;5043258;28;20222;-75
2024/01/24 08:16:29;;;;;;;;;;;;;;;1.11;70.13;95799.63;5043701;28;19920;-76
2024/01/24 08:18:55;;;;;;;;;;;;;;;1.08;70.95;95767.53;5059940;28;20436;-75
2024/01/24 08:21:20;;;;;;;;;;;;;;;1.10;70.52;95771.69;5047931;28;19951;-74
2024/01/24 08:23:45;;;;;;;;;;;;;;;1.10;70.63;95773.50;5044063;28;19968;-75
2024/01/24 08:26:11;;;;;;;;;;;;;;;1.11;69.82;95773.41;5070418;28;19951;-74
2024/01/24 08:28:36;;;;;;;;;;;;;;;1.05;68.01;95794.81;5040858;28;20437;-76
2024/01/24 08:31:01;;;;;;;;;;;;;;;1.12;67.98;95771.59;5069369;28;20253;-75
2024/01/24 08:33:26;;;;;;;;;;;;;;;1.21;67.11;95754.34;5040257;28;19925;-75
2024/01/24 08:35:52;;;;;;;;;;;;;;;1.18;67.58;95758.03;5074794;28;20778;-74
2024/01/24 08:38:17;;;;;;;;;;;;;;;1.14;68.77;95753.13;5083757;28;20044;-74
2024/01/24 08:40:42;;;;;;;;;;;;;;;1.05;66.22;95804.47;5070638;28;20174;-76
2024/01/24 08:43:08;;;;;;;;;;;;;;;1.11;67.33;95783.03;5072367;28;20012;-74
2024/01/24 08:45:33;;;;;;;;;;;;;;;1.17;66.44;95779.97;5059682;28;20151;-75
2024/01/24 08:47:58;;;;;;;;;;;;;;;1.09;66.99;95791.03;5063794;28;20404;-75
2024/01/24 08:50:24;;;;;;;;;;;;;;;1.11;67.57;95783.03;5039395;28;19974;-75
2024/01/24 08:52:50;;;;;;;;;;;;;;;1.16;67.06;95787.94;5050444;28;19924;-74
2024/01/24 08:55:16;;;;;;;;;;;;;;;1.01;65.58;95764.53;5040944;28;19928;-75
2024/01/24 08:57:42;;;;;;;;;;;;;;;0.98;65.33;95825.06;5062436;28;20379;-75
2024/01/24 09:00:08;;;;;;;;;;;;;;;1.00;66.28;95836.28;5055098;28;20379;-75
2024/01/24 09:02:33;;;;;;;;;;;;;;;1.08;66.67;95830.47;5065805;28;20419;-75
2024/01/24 09:04:59;;;;;;;;;;;;;;;1.09;66.68;95817.25;5057243;28;19923;-75
2024/01/24 09:07:24;;;;;;;;;;;;;;;1.09;65.72;95817.25;5054013;28;20540;-75
2024/01/24 09:09:50;;;;;;;;;;;;;;;1.10;64.82;95826.78;5061967;28;19920;-76
2024/01/24 09:12:15;;;;;;;;;;;;;;;1.24;65.56;95831.03;5080134;28;20305;-76
2024/01/24 09:14:41;;;;;;;;;;;;;;;0.91;66.04;95864.00;5062330;28;19967;-76
2024/01/24 09:17:07;;;;;;;;;;;;;;;0.91;67.10;95853.53;5064097;28;20436;-75
2024/01/24 09:19:33;;;;;;;;;;;;;;;0.77;70.62;95835.31;5081162;28;20411;-75
2024/01/24 09:21:58;;;;;;;;;;;;;;;0.49;74.03;95855.66;5084238;28;19925;-75
2024/01/24 09:24:23;;;;;;;;;;;;;;;0.26;74.66;95860.72;5064951;28;19928;-74
2024/01/24 09:26:49;;;;;;;;;;;;;;;0.50;72.79;95859.94;5080006;28;20556;-75
2024/01/24 09:29:14;;;;;;;;;;;;;;;0.51;69.93;95857.22;5066751;28;20317;-75
2024/01/24 09:31:45;;;;;;;;;;;;;;;0.71;67.94;95863.66;5047642;28;19920;-75
2024/01/24 09:34:13;;;;;;;;;;;;;;;0.76;67.58;95865.13;5050944;28;20300;-75
2024/01/24 09:36:39;;;;;;;;;;;;;;;0.86;65.87;95853.03;5048618;28;19924;-76
2024/01/24 09:39:04;;;;;;;;;;;;;;;1.00;67.18;95882.66;5057496;28;19936;-76
2024/01/24 09:41:31;;;;;;;;;;;;;;;0.93;65.72;95858.66;5069113;28;20015;-75
2024/01/24 09:43:57;;;;;;;;;;;;;;;1.01;66.03;95866.81;5049908;28;19947;-75
2024/01/24 09:46:22;;;;;;;;;;;;;;;0.98;65.04;95849.50;5045129;28;19928;-76
2024/01/24 09:48:47;;;;;;;;;;;;;;;0.90;63.53;95859.72;5046251;28;19932;-75
2024/01/24 09:51:13;;;;;;;;;;;;;;;1.15;63.71;95904.28;5067790;28;20325;-76
2024/01/24 09:53:38;;;;;;;;;;;;;;;0.95;63.35;95869.84;5056344;28;19923;-75
2024/01/24 09:56:03;;;;;;;;;;;;;;;0.97;61.22;95887.19;5065152;28;20316;-74
2024/01/24 09:58:29;;;;;;;;;;;;;;;1.15;61.66;95867.56;5069401;28;20015;-76
2024/01/24 10:00:54;;;;;;;;;;;;;;;1.07;62.39;95886.50;5069324;28;20410;-76
2024/01/24 10:03:19;;;;;;;;;;;;;;;1.18;61.85;95883.09;5051422;28;19995;-75
2024/01/24 10:05:44;;;;;;;;;;;;;;;1.43;60.66;95870.78;5053887;28;19932;-78
2024/01/24 10:08:10;;;;;;;;;;;;;;;1.47;60.16;95895.84;5048020;28;20021;-78
2024/01/24 10:10:36;;;;;;;;;;;;;;;1.52;60.26;95904.22;5058641;28;20035;-78
2024/01/24 10:13:02;;;;;;;;;;;;;;;1.68;60.24;95913.59;5050515;28;19924;-77
2024/01/24 10:15:27;;;;;;;;;;;;;;;1.74;59.08;95905.28;5046044;28;19931;-78
2024/01/24 10:17:53;;;;;;;;;;;;;;;1.91;58.97;95900.53;5066768;28;20451;-77
2024/01/24 10:20:18;;;;;;;;;;;;;;;2.03;57.95;95917.97;5063493;28;19951;-77
2024/01/24 10:22:44;;;;;;;;;;;;;;;1.97;58.09;95948.16;5051102;28;20648;-77
2024/01/24 10:25:10;;;;;;;;;;;;;;;1.85;57.53;95938.59;5068659;28;20022;-77
2024/01/24 10:27:39;;;;;;;;;;;;;;;1.91;57.30;95974.06;5071020;28;20420;-78
2024/01/24 10:30:11;;;;;;;;;;;;;;;1.77;57.98;95959.34;5040328;28;20462;-77
2024/01/24 10:32:37;;;;;;;;;;;;;;;1.68;58.80;95948.56;5070222;28;20015;-78
2024/01/24 10:35:05;;;;;;;;;;;;;;;1.50;57.49;95961.25;5048238;28;20007;-77
2024/01/24 10:37:34;;;;;;;;;;;;;;;1.53;58.51;95962.78;5047428;28;19936;-78
2024/01/24 10:40:11;;;;;;;;;;;;;;;1.53;58.25;95996.91;5059006;28;19928;-78
2024/01/24 10:42:37;;;;;;;;;;;;;;;1.55;59.03;95967.00;5056693;28;19928;-78
2024/01/24 10:45:06;;;;;;;;;;;;;;;1.53;57.27;95957.56;5031843;28;20146;-77
2024/01/24 10:47:31;;;;;;;;;;;;;;;1.86;56.04;95983.13;5029782;28;19925;-78
2024/01/24 10:49:56;;;;;;;;;;;;;;;1.55;56.63;95977.50;5037522;28;19977;-77
2024/01/24 10:52:22;;;;;;;;;;;;;;;1.69;57.59;96007.16;5052273;28;19934;-78
2024/01/24 10:54:47;;;;;;;;;;;;;;;1.67;58.14;95988.88;5058806;28;19987;-77
2024/01/24 10:57:14;;;;;;;;;;;;;;;1.56;59.08;95973.94;5066176;28;19920;-67
2024/01/24 10:59:39;;;;;;;;;;;;;;;1.23;61.24;95978.03;5068601;28;20094;-66
2024/01/24 11:02:05;;;;;;;;;;;;;;;1.54;60.06;95973.22;5054521;28;20388;-67
2024/01/24 11:04:30;;;;;;;;;;;;;;;1.51;60.61;95968.16;5053546;28;20232;-67
2024/01/24 11:07:04;;;;;;;;;;;;;;;1.80;60.50;95978.31;5073119;28;19924;-67
2024/01/24 11:09:32;;;;;;;;;;;;;;;1.30;61.28;95971.38;5061119;28;19934;-67
2024/01/24 11:11:58;;;;;;;;;;;;;;;1.30;62.10;95966.13;5085588;28;19946;-67
2024/01/24 11:14:30;;;;;;;;;;;;;;;1.15;63.06;95994.31;5068127;28;19932;-67
2024/01/24 11:16:55;;;;;;;;;;;;;;;0.94;63.62;95997.50;5071315;28;19924;-67
2024/01/24 11:19:22;;;;;;;;;;;;;;;1.22;62.84;95982.44;5044525;28;20390;-66
2024/01/24 11:21:47;;;;;;;;;;;;;;;1.08;61.88;96038.50;5080699;28;20132;-67
2024/01/24 11:24:13;;;;;;;;;;;;;;;0.90;62.30;95974.22;5060318;28;20394;-66
2024/01/24 11:26:38;;;;;;;;;;;;;;;0.99;62.10;95984.09;5067845;28;19978;-67
2024/01/24 11:29:09;;;;;;;;;;;;;;;1.01;63.09;95992.66;5075959;28;19928;-67
2024/01/24 11:31:38;;;;;;;;;;;;;;;0.71;65.63;96017.47;5042136;28;20391;-67
2024/01/24 11:34:12;;;;;;;;;;;;;;;0.50;67.06;96004.06;5059907;28;20349;-66
2024/01/24 11:36:41;;;;;;;;;;;;;;;0.85;65.80;96004.22;5067825;28;19932;-67
2024/01/24 11:39:26;;;;;;;;;;;;;;;0.95;66.65;95998.34;5067619;28;19974;-67
2024/01/24 11:41:51;;;;;;;;;;;;;;;0.81;67.19;95994.91;5059377;28;20519;-67
2024/01/24 11:44:18;;;;;;;;;;;;;;;0.79;67.00;96040.53;5063489;28;20087;-66
2024/01/24 11:46:43;;;;;;;;;;;;;;;0.88;65.91;96008.41;5074038;28;20242;-66
2024/01/24 11:49:09;;;;;;;;;;;;;;;0.73;66.74;96007.72;5061136;28;19951;-66
2024/01/24 11:51:34;;;;;;;;;;;;;;;0.80;66.70;96010.75;5044366;28;19920;-66
2024/01/24 11:54:00;;;;;;;;;;;;;;;0.70;67.11;96027.13;5072941;28;20303;-66
2024/01/24 11:56:25;;;;;;;;;;;;;;;0.58;69.73;96034.03;5056773;28;19921;-67
2024/01/24 11:58:50;;;;;;;;;;;;;;;0.84;68.56;96031.41;5060795;28;20160;-67
2024/01/24 12:01:16;;;;;;;;;;;;;;;0.63;73.03;96051.22;5060238;28;19920;-67
2024/01/24 12:03:47;;;;;;;;;;;;;;;0.16;77.09;96039.47;5063962;28;20394;-67
2024/01/24 12:06:12;;;;;;;;;;;;;;;0.11;76.12;96036.31;5068785;28;20094;-67
2024/01/24 12:08:38;;;;;;;;;;;;;;;0.06;72.43;96054.94;5065458;28;20257;-67
2024/01/24 12:11:04;;;;;;;;;;;;;;;0.14;71.47;96062.28;5066669;28;19970;-66
2024/01/24 12:13:29;;;;;;;;;;;;;;;0.43;68.28;96077.00;5066903;28;20272;-66
2024/01/24 12:15:58;;;;;;;;;;;;;;;0.39;66.03;96076.38;5053358;28;19932;-66
2024/01/24 12:18:24;;;;;;;;;;;;;;;0.35;65.56;96085.38;5048115;28;19968;-66
2024/01/24 12:20:50;;;;;;;;;;;;;;;0.57;65.30;96066.44;5061225;28;20011;-66
2024/01/24 12:23:16;;;;;;;;;;;;;;;0.63;65.84;96074.81;5060802;28;19920;-66
2024/01/24 12:25:42;;;;;;;;;;;;;;;0.72;65.00;96061.09;5064556;28;19924;-66
2024/01/24 12:28:07;;;;;;;;;;;;;;;0.46;62.73;96066.31;5058051;28;19928;-68
2024/01/24 12:30:35;;;;;;;;;;;;;;;0.71;62.55;96073.34;5078585;28;20426;-67
2024/01/24 12:33:01;;;;;;;;;;;;;;;0.56;63.24;96093.59;5070850;28;20420;-67
2024/01/24 12:35:27;;;;;;;;;;;;;;;0.51;63.40;96103.53;5073578;28;20201;-67
2024/01/24 12:37:52;;;;;;;;;;;;;;;0.44;63.95;96078.66;5062351;28;20209;-67
2024/01/24 12:40:18;;;;;;;;;;;;;;;0.75;63.78;96081.81;5043941;28;20257;-67
2024/01/24 12:42:43;;;;;;;;;;;;;;;0.61;64.22;96071.47;5051816;28;19954;-67
2024/01/24 12:45:11;;;;;;;;;;;;;;;0.71;63.72;96072.50;5053106;28;20734;-66
2024/01/24 12:47:37;;;;;;;;;;;;;;;0.97;63.43;96086.47;5047304;28;19923;-67